Time;durP1;ratioP1;P1;durP2;ratioP2;P2;SDS_P1;SDS_P2;PMS_P1;PMS_P2;Temp;Humidity;BMP_temperature;BMP_pressure;BME280_temperature;BME280_humidity;BME280_pressure;Samples;Min_cycle;Max_cycle;Signal;HPM_P1;HPM_P2
2022/08/18 00:04:37;;;;;;;8.33;5.63;;;16.70;99.90;;;;;;21079048;28;20498;-79
2022/08/18 00:14:38;;;;;;;11.10;5.28;;;16.70;99.90;;;;;;21100868;28;20055;-79
2022/08/18 00:24:39;;;;;;;9.60;6.07;;;16.50;99.90;;;;;;21121374;28;20032;-79
2022/08/18 00:34:40;;;;;;;8.27;5.87;;;16.10;99.90;;;;;;21092469;28;20052;-79
2022/08/18 00:44:41;;;;;;;8.80;4.97;;;15.90;99.90;;;;;;21102330;28;20032;-79
2022/08/18 00:54:44;;;;;;;7.27;5.07;;;16.10;99.90;;;;;;21087401;28;20048;-79
2022/08/18 01:05:09;;;;;;;7.40;4.78;;;16.10;99.90;;;;;;21114643;28;20036;-79
2022/08/18 01:15:14;;;;;;;8.50;5.57;;;16.20;99.90;;;;;;21129105;28;20046;-79
2022/08/18 01:35:41;;;;;;;11.15;7.43;;;16.40;99.90;;;;;;21112260;28;20056;-79
2022/08/18 01:45:42;;;;;;;11.23;7.68;;;16.40;99.90;;;;;;21132135;28;20455;-79
2022/08/18 01:55:44;;;;;;;15.13;7.37;;;16.10;99.90;;;;;;21129892;28;20071;-79
2022/08/18 02:05:48;;;;;;;7.43;5.45;;;16.00;99.90;;;;;;21108252;28;20071;-79
2022/08/18 02:15:49;;;;;;;10.88;6.43;;;15.90;99.90;;;;;;21107666;28;20391;-79
2022/08/18 02:25:50;;;;;;;9.27;5.63;;;15.60;99.90;;;;;;21103870;28;20044;-79
2022/08/18 02:35:54;;;;;;;9.23;6.60;;;15.50;99.90;;;;;;21114691;28;20457;-79
2022/08/18 02:45:55;;;;;;;8.90;6.20;;;15.50;99.90;;;;;;21116225;28;20039;-79
2022/08/18 02:56:26;;;;;;;17.07;5.97;;;15.40;99.90;;;;;;21115189;28;20241;-80
2022/08/18 03:06:27;;;;;;;13.35;7.80;;;15.60;99.90;;;;;;21110536;28;20043;-80
2022/08/18 03:16:31;;;;;;;14.27;6.80;;;15.60;99.90;;;;;;21089780;28;20039;-79
2022/08/18 03:26:33;;;;;;;9.27;5.45;;;15.30;99.90;;;;;;21095508;28;20051;-79
2022/08/18 03:36:35;;;;;;;6.95;5.35;;;15.40;99.90;;;;;;21108460;28;20437;-80
2022/08/18 03:46:38;;;;;;;10.40;5.78;;;15.30;99.90;;;;;;21090221;28;20046;-80
2022/08/18 03:56:42;;;;;;;17.50;6.53;;;15.10;99.90;;;;;;21106234;28;20090;-80
2022/08/18 04:06:49;;;;;;;9.10;5.72;;;15.20;99.90;;;;;;21069552;28;20051;-80
2022/08/18 04:16:51;;;;;;;11.25;6.75;;;15.30;99.90;;;;;;21084309;28;20040;-80
2022/08/18 04:26:52;;;;;;;;;;;15.40;99.90;;;;;;21109659;28;20046;-80
2022/08/18 04:36:53;;;;;;;12.97;6.80;;;15.50;99.90;;;;;;21107387;28;19912;-79
2022/08/18 04:46:54;;;;;;;11.13;8.03;;;15.40;99.90;;;;;;21107908;28;20286;-79
2022/08/18 04:56:56;;;;;;;11.77;7.03;;;15.40;99.90;;;;;;21088493;28;20060;-80
2022/08/18 05:06:57;;;;;;;12.60;7.07;;;15.50;99.90;;;;;;21084441;28;20093;-80
2022/08/18 05:16:59;;;;;;;13.53;7.73;;;15.50;99.90;;;;;;21104373;28;20134;-79
2022/08/18 05:27:00;;;;;;;14.18;8.80;;;15.60;99.90;;;;;;21103519;28;20089;-80
2022/08/18 05:37:21;;;;;;;11.50;7.75;;;15.80;99.90;;;;;;21099166;22;20052;-75
2022/08/18 05:47:26;;;;;;;14.30;8.40;;;15.80;99.90;;;;;;21070699;28;20044;-75
2022/08/18 05:57:32;;;;;;;19.27;8.73;;;16.00;99.90;;;;;;21086483;28;20414;-76
2022/08/18 06:07:41;;;;;;;14.95;10.07;;;16.10;99.90;;;;;;21084735;28;20111;-75
2022/08/18 06:17:59;;;;;;;20.85;11.55;;;16.30;99.90;;;;;;21083358;28;20047;-75
2022/08/18 06:28:02;;;;;;;15.27;10.57;;;16.60;99.90;;;;;;21030588;28;20032;-74
2022/08/18 06:38:39;;;;;;;19.67;11.70;;;16.80;99.90;;;;;;20915445;28;20732;-74
2022/08/18 06:48:48;;;;;;;18.42;10.90;;;16.70;99.90;;;;;;20994017;28;20076;-74
2022/08/18 06:58:49;;;;;;;17.42;10.63;;;16.90;99.90;;;;;;20999093;28;20119;-74
2022/08/18 07:08:53;;;;;;;13.93;9.93;;;17.10;99.90;;;;;;20991692;28;20391;-74
2022/08/18 07:19:04;;;;;;;16.65;11.15;;;17.50;99.90;;;;;;20989966;28;20033;-74
2022/08/18 07:29:14;;;;;;;18.10;9.65;;;17.20;99.90;;;;;;21015660;28;20049;-74
2022/08/18 07:39:58;;;;;;;15.07;8.75;;;17.50;99.90;;;;;;20990585;28;20557;-75
2022/08/18 07:50:01;;;;;;;14.85;8.02;;;17.90;99.90;;;;;;20981876;28;20036;-74
2022/08/18 08:00:35;;;;;;;13.90;8.02;;;18.50;99.90;;;;;;21006494;28;20033;-74
2022/08/18 08:11:00;;;;;;;10.13;7.25;;;18.90;99.90;;;;;;20923949;28;20095;-74
2022/08/18 08:21:37;;;;;;;12.40;7.07;;;18.90;99.90;;;;;;20928239;28;20044;-75
2022/08/18 08:32:00;;;;;;;10.60;6.95;;;18.70;99.90;;;;;;20899177;28;20053;-74
2022/08/18 08:42:52;;;;;;;12.32;7.90;;;18.60;99.90;;;;;;20948424;28;20523;-74
2022/08/18 08:53:06;;;;;;;18.75;9.73;;;18.60;99.90;;;;;;20899490;28;20052;-74
2022/08/18 09:03:10;;;;;;;14.93;9.32;;;18.60;99.90;;;;;;20933101;28;20052;-73
2022/08/18 09:13:11;;;;;;;12.73;9.27;;;19.30;99.90;;;;;;20932750;28;20041;-74
2022/08/18 09:23:29;;;;;;;15.17;8.70;;;20.10;99.90;;;;;;20967028;28;20498;-74
2022/08/18 09:33:46;;;;;;;11.48;7.63;;;20.70;99.90;;;;;;20965749;28;20032;-74
2022/08/18 09:44:09;;;;;;;8.35;6.70;;;21.30;99.90;;;;;;20929238;28;20427;-74
2022/08/18 09:54:14;;;;;;;9.80;6.68;;;22.40;99.90;;;;;;20900217;28;20040;-75
2022/08/18 10:04:25;;;;;;;10.90;6.32;;;22.30;99.90;;;;;;20917176;28;20041;-74
2022/08/18 10:14:52;;;;;;;10.13;7.77;;;23.60;99.90;;;;;;20916213;28;20041;-74
2022/08/18 10:24:58;;;;;;;11.95;9.38;;;22.80;99.90;;;;;;20915343;28;20492;-74
2022/08/18 10:34:58;;;;;;;13.73;8.02;;;22.90;99.90;;;;;;20914674;28;20417;-74
2022/08/18 10:45:23;;;;;;;10.13;7.70;;;23.60;99.90;;;;;;20913482;28;20048;-74
2022/08/18 10:55:30;;;;;;;9.70;6.55;;;23.30;99.90;;;;;;20913481;28;20102;-74
2022/08/18 11:05:31;;;;;;;8.25;5.75;;;23.30;99.90;;;;;;20912170;28;20191;-74
2022/08/18 11:15:56;;;;;;;8.13;6.07;;;24.70;99.90;;;;;;20911849;28;20067;-74
2022/08/18 11:26:13;;;;;;;48.70;15.65;;;23.80;99.90;;;;;;20910778;28;20503;-74
2022/08/18 11:36:15;;;;;;;8.70;5.22;;;24.70;99.90;;;;;;20996967;22;20048;-75
2022/08/18 11:46:27;;;;;;;10.32;4.90;;;24.10;99.90;;;;;;21037482;28;20409;-75
2022/08/18 11:56:31;;;;;;;7.28;5.80;;;24.60;99.90;;;;;;21073818;28;20064;-75
2022/08/18 12:06:32;;;;;;;6.88;5.57;;;24.30;99.90;;;;;;21074731;28;20557;-76
2022/08/18 12:16:35;;;;;;;;;;;23.70;99.90;;;;;;21074454;28;20047;-76
2022/08/18 12:26:35;;;;;;;11.20;4.72;;;23.20;99.90;;;;;;21073252;28;19912;-75
2022/08/18 12:36:37;;;;;;;8.37;5.17;;;23.00;99.90;;;;;;21073269;28;20032;-76
2022/08/18 12:46:38;;;;;;;8.05;5.07;;;23.00;99.90;;;;;;21073022;28;20582;-76
2022/08/18 12:56:41;;;;;;;7.73;5.30;;;22.50;99.90;;;;;;21054206;28;20071;-76
2022/08/18 13:06:55;;;;;;;8.15;5.15;;;22.50;99.90;;;;;;21076732;28;20411;-76
2022/08/18 13:16:55;;;;;;;7.53;5.38;;;22.30;99.90;;;;;;21087598;28;20044;-76
2022/08/18 13:26:56;;;;;;;8.73;4.97;;;22.20;99.90;;;;;;21089511;28;20658;-80
2022/08/18 13:36:57;;;;;;;9.90;5.43;;;22.10;99.90;;;;;;21103663;28;20044;-79
2022/08/18 13:46:58;;;;;;;7.13;4.50;;;22.20;99.90;;;;;;21087082;28;20509;-79
2022/08/18 13:56:59;;;;;;;6.93;4.80;;;22.60;99.90;;;;;;21105433;28;20130;-80
2022/08/18 14:07:01;;;;;;;6.35;4.50;;;22.70;99.90;;;;;;21111066;28;20612;-80
2022/08/18 14:17:01;;;;;;;9.90;4.88;;;22.90;99.90;;;;;;21091217;28;20498;-79
2022/08/18 14:27:02;;;;;;;7.10;5.27;;;22.90;99.90;;;;;;21088612;28;20039;-80
2022/08/18 14:37:03;;;;;;;6.87;5.40;;;22.70;99.90;;;;;;21081879;28;20300;-80
2022/08/18 14:47:04;;;;;;;7.13;5.90;;;22.40;99.90;;;;;;21097670;28;20373;-80
2022/08/18 14:57:10;;;;;;;6.47;4.47;;;22.40;99.90;;;;;;21078972;28;20047;-80
2022/08/18 15:07:11;;;;;;;9.50;4.65;;;22.50;99.90;;;;;;21070650;28;20427;-79
2022/08/18 15:17:12;;;;;;;6.00;4.73;;;22.30;99.90;;;;;;21078245;28;20044;-79
2022/08/18 15:27:14;;;;;;;7.77;4.30;;;22.00;99.90;;;;;;21078461;28;20051;-80
2022/08/18 15:37:15;;;;;;;8.52;4.80;;;22.10;99.90;;;;;;21079070;28;20089;-80
2022/08/18 15:47:16;;;;;;;;;;;22.10;99.90;;;;;;21082057;28;20068;-79
2022/08/18 15:57:17;;;;;;;5.93;4.10;;;22.00;99.90;;;;;;21077543;28;19915;-78
2022/08/18 16:07:19;;;;;;;7.07;3.80;;;21.90;99.90;;;;;;21065289;28;20040;-80
2022/08/18 16:17:20;;;;;;;6.22;4.43;;;21.90;99.90;;;;;;21096821;28;20036;-79
2022/08/18 16:27:21;;;;;;;5.72;4.50;;;21.60;99.90;;;;;;21080749;28;20032;-79
2022/08/18 16:37:22;;;;;;;7.77;4.37;;;21.40;99.90;;;;;;21084410;28;20041;-79
2022/08/18 16:47:23;;;;;;;6.27;4.40;;;21.20;99.90;;;;;;21053023;28;20107;-79
2022/08/18 17:07:43;;;;;;;11.48;4.55;;;21.00;99.90;;;;;;21110667;28;20069;-79
2022/08/18 17:17:46;;;;;;;6.47;4.97;;;20.90;99.90;;;;;;21113256;28;20040;-80
2022/08/18 17:27:47;;;;;;;6.80;4.25;;;20.80;99.90;;;;;;21092731;28;20130;-80
2022/08/18 17:38:07;;;;;;;5.78;4.70;;;20.70;99.90;;;;;;20991506;22;20138;-76
2022/08/18 17:48:20;;;;;;;7.05;5.63;;;20.60;99.90;;;;;;20960444;28;20060;-76
2022/08/18 17:58:28;;;;;;;7.18;5.00;;;20.50;99.90;;;;;;20956761;28;20033;-77
2022/08/18 18:08:51;;;;;;;7.30;5.13;;;20.50;99.90;;;;;;20957836;28;20028;-77
2022/08/18 18:19:01;;;;;;;6.45;4.70;;;20.40;99.90;;;;;;20957332;28;20044;-76
2022/08/18 18:29:29;;;;;;;7.60;4.30;;;20.30;99.90;;;;;;20952708;28;20063;-77
2022/08/18 18:39:34;;;;;;;10.15;5.03;;;20.40;99.90;;;;;;20914739;28;20056;-77
2022/08/18 18:49:46;;;;;;;8.13;5.43;;;20.20;99.90;;;;;;20914387;28;20051;-77
2022/08/18 18:59:55;;;;;;;7.57;5.10;;;20.10;99.90;;;;;;20914345;28;20514;-76
2022/08/18 19:10:08;;;;;;;8.85;5.85;;;20.00;99.90;;;;;;20941003;28;20047;-77
2022/08/18 19:20:15;;;;;;;11.15;6.20;;;19.70;99.90;;;;;;20968624;28;20033;-77
2022/08/18 19:30:18;;;;;;;10.07;7.03;;;19.60;99.90;;;;;;20948808;28;20044;-77
2022/08/18 19:40:52;;;;;;;13.32;7.57;;;19.40;99.90;;;;;;20962726;28;20033;-76
2022/08/18 19:51:03;;;;;;;12.82;8.25;;;19.20;99.90;;;;;;20971330;28;20060;-76
2022/08/18 20:01:28;;;;;;;13.03;8.70;;;19.30;99.90;;;;;;20991150;28;20036;-75
2022/08/18 20:11:47;;;;;;;14.38;9.00;;;19.20;99.90;;;;;;20991022;28;20446;-75
2022/08/18 20:22:00;;;;;;;13.77;9.30;;;19.10;99.90;;;;;;20990661;28;20052;-76
2022/08/18 20:32:17;;;;;;;18.17;10.23;;;19.00;99.90;;;;;;20938381;28;20134;-76
2022/08/18 20:42:20;;;;;;;18.75;11.70;;;19.00;99.90;;;;;;20908750;28;20045;-76
2022/08/18 20:52:46;;;;;;;15.75;11.15;;;18.80;99.90;;;;;;20906810;28;20053;-76
2022/08/18 21:02:51;;;;;;;16.85;11.50;;;18.80;99.90;;;;;;20909150;28;20033;-76
2022/08/18 21:12:55;;;;;;;21.88;13.25;;;18.80;99.90;;;;;;20909561;28;20091;-76
2022/08/18 21:23:08;;;;;;;27.63;15.32;;;18.50;99.90;;;;;;20905695;28;20120;-75
2022/08/18 21:33:19;;;;;;;21.80;15.02;;;18.50;99.90;;;;;;20918358;28;20072;-76
2022/08/18 21:43:42;;;;;;;27.57;16.37;;;18.70;99.90;;;;;;20919191;28;20048;-75
2022/08/18 21:53:43;;;;;;;24.27;15.88;;;18.50;99.90;;;;;;20919936;28;20279;-76
2022/08/18 22:03:58;;;;;;;29.13;16.40;;;18.60;99.90;;;;;;20917777;28;20043;-75
2022/08/18 22:14:25;;;;;;;31.35;18.95;;;18.50;99.90;;;;;;20915997;28;20117;-75
2022/08/18 22:24:37;;;;;;;29.63;18.15;;;18.40;99.90;;;;;;20942670;28;20073;-75
2022/08/18 22:34:39;;;;;;;34.78;18.23;;;18.50;99.90;;;;;;20988230;28;20044;-73
2022/08/18 22:44:41;;;;;;;32.08;19.63;;;18.40;99.90;;;;;;20993980;28;20527;-73
2022/08/18 22:54:42;;;;;;;30.95;18.55;;;18.40;99.90;;;;;;20957552;28;20394;-73
2022/08/18 23:04:44;;;;;;;35.90;19.40;;;18.40;99.90;;;;;;20950964;28;20033;-73
2022/08/18 23:14:45;;;;;;;34.25;18.65;;;18.20;99.90;;;;;;20959500;28;20071;-73
2022/08/18 23:24:47;;;;;;;23.38;14.48;;;18.20;99.90;;;;;;20992971;28;20045;-73
2022/08/18 23:34:48;;;;;;;21.13;14.18;;;18.20;99.90;;;;;;21034018;22;20060;-74
2022/08/18 23:44:49;;;;;;;26.23;14.87;;;18.30;99.90;;;;;;20974210;28;20434;-75
2022/08/18 23:54:49;;;;;;;30.43;17.30;;;18.20;99.90;;;;;;20992017;28;20037;-75
